Polaris — JD2797 — position and weather

sailwx.info

Track history (hours):
 
Tides and Currents Weather Stations Pressure Air Temp Water Temp Dewpoint Dewpoint Depression Visibility Wind Speed Wind Dir Waves Ship Positions

Polaris

Last reported at 2017-Jul-23 04:30 UTC. Time now 2017-Jul-23 04:39 UTC.
Position N 35°27' E 139°40'.

Length 30 m; draft 2.6 m.

Type: Pilot. MMSI: 431000764.

Date/timePositionNaut miles runAvg speedWind from/ knotsBaromVisibWave heightAir tempDewpointWater temp
2017-Jul-23 04:30N 35°27' E 139°40'0 0.0
2017-Jul-23 04:00N 35°27' E 139°40'0 0.0
2017-Jul-23 03:30N 35°27' E 139°40'0 0.0
2017-Jul-23 03:00N 35°27' E 139°40'0 0.0
2017-Jul-23 02:30N 35°27' E 139°40'0 0.0
2017-Jul-23 02:00N 35°27' E 139°40'4 7.1
2017-Jul-23 01:31N 35°24' E 139°42'714.3
2017-Jul-23 01:01N 35°17' E 139°44'3 5.9
2017-Jul-23 00:30N 35°14' E 139°46'612.7
2017-Jul-23 00:00N 35°20' E 139°42'4 7.3
2017-Jul-22 23:30N 35°23' E 139°44'0 0.8
2017-Jul-22 23:00N 35°23' E 139°44'510.1
2017-Jul-22 22:30N 35°27' E 139°40'1 1.7
2017-Jul-22 22:00N 35°27' E 139°40'0 0.0
2017-Jul-22 21:30N 35°27' E 139°40'0 0.0
2017-Jul-22 21:01N 35°27' E 139°40'0 0.0
2017-Jul-22 20:30N 35°27' E 139°40'0 0.0
2017-Jul-22 20:00N 35°27' E 139°40'0 0.0
2017-Jul-22 19:30N 35°27' E 139°40'0 0.0
2017-Jul-22 19:00N 35°27' E 139°40'0 0.0
2017-Jul-22 18:30N 35°27' E 139°40'0 0.0
2017-Jul-22 18:00N 35°27' E 139°40'0 0.0
2017-Jul-22 17:30N 35°27' E 139°40'0 0.0
2017-Jul-22 17:00N 35°27' E 139°40'0 0.0
2017-Jul-22 16:30N 35°27' E 139°40'0 0.0
2017-Jul-22 16:00N 35°27' E 139°40'0 0.0
2017-Jul-22 15:30N 35°27' E 139°40'0 0.0
2017-Jul-22 15:00N 35°27' E 139°40'0 0.0
2017-Jul-22 14:01N 35°27' E 139°40'0 0.0
2017-Jul-22 13:30N 35°27' E 139°40'0 0.0
2017-Jul-22 13:00N 35°27' E 139°40'0 0.0
2017-Jul-22 12:30N 35°27' E 139°40'0 0.0
2017-Jul-22 12:00N 35°27' E 139°40'1 1.2
2017-Jul-22 11:30N 35°27' E 139°40'713.4
2017-Jul-22 11:00N 35°21' E 139°42'815.1
2017-Jul-22 10:30N 35°14' E 139°46'2 4.2
2017-Jul-22 10:00N 35°16' E 139°46'612.8
2017-Jul-22 09:30N 35°22' E 139°42'4 8.2
2017-Jul-22 09:00N 35°25' E 139°45'3 6.4
2017-Jul-22 08:30N 35°26' E 139°42'2 3.7
2017-Jul-22 08:00N 35°27' E 139°40'0 0.0
2017-Jul-22 07:30N 35°27' E 139°40'0 0.0
2017-Jul-22 07:00N 35°27' E 139°40'0 0.0
2017-Jul-22 06:30N 35°27' E 139°40'0 0.0
2017-Jul-22 06:00N 35°27' E 139°40'0 0.0
2017-Jul-22 05:30N 35°27' E 139°40'0 0.0
2017-Jul-22 05:00N 35°27' E 139°40'0 0.0
2017-Jul-22 04:30N 35°27' E 139°40'0 0.0
2017-Jul-22 04:00N 35°27' E 139°40'0 0.0
2017-Jul-22 03:30N 35°27' E 139°40'0 0.0
2017-Jul-22 03:00N 35°27' E 139°40'0 0.0
2017-Jul-22 02:30N 35°27' E 139°40'1 2.2
2017-Jul-22 02:01N 35°27' E 139°41'714.8
2017-Jul-22 01:31N 35°20' E 139°42'714.8
2017-Jul-22 01:00N 35°13' E 139°46'3 5.7
2017-Jul-22 00:30N 35°16' E 139°46'4 8.3
2017-Jul-22 00:00N 35°19' E 139°43'3 5.8
2017-Jul-21 23:30N 35°22' E 139°42'510.8
2017-Jul-21 23:00N 35°27' E 139°41'1 2.4
2017-Jul-21 22:30N 35°27' E 139°40'0 0.0
2017-Jul-21 22:00N 35°27' E 139°40'0 0.0
2017-Jul-21 21:30N 35°27' E 139°40'  
2017-Jul-18 23:49N 35°27' E 139°40'2 7.7
2017-Jul-18 23:30N 35°25' E 139°42'714.8
2017-Jul-18 23:00N 35°18' E 139°44'5 9.7
2017-Jul-18 22:30N 35°13' E 139°46'611.5
2017-Jul-18 22:00N 35°19' E 139°44'612.5
2017-Jul-18 21:31N 35°25' E 139°43'2 3.1
2017-Jul-18 21:01N 35°25' E 139°45'3 6.9
2017-Jul-18 20:30N 35°27' E 139°42'2 3.7
2017-Jul-18 20:00N 35°27' E 139°40'0 0.0
2017-Jul-18 19:30N 35°27' E 139°40'0 0.0
2017-Jul-16 18:23N 35°27' E 139°40'3 7.1
2017-Jul-16 18:00N 35°25' E 139°42'714.6
2017-Jul-16 17:31N 35°18' E 139°44'5 9.7
2017-Jul-16 16:59N 35°13' E 139°46'612.2
2017-Jul-16 16:30N 35°19' E 139°44'510.3
2017-Jul-16 16:00N 35°23' E 139°41'0 0.6
2017-Jul-16 15:30N 35°23' E 139°41'0 0.5
2017-Jul-16 15:00N 35°23' E 139°41'3 6.8
2017-Jul-16 14:31N 35°26' E 139°42'2 3.7
2017-Jul-16 14:00N 35°27' E 139°40'0 0.0
2017-Jul-16 13:30N 35°27' E 139°40'0 0.0
2017-Jul-16 13:00N 35°27' E 139°40'0 0.0
2017-Jul-16 12:30N 35°27' E 139°40'0 0.0
2017-Jul-16 12:00N 35°27' E 139°40'0 0.0
2017-Jul-16 11:30N 35°27' E 139°40'0 0.0
2017-Jul-16 11:00N 35°27' E 139°40'0 0.0
2017-Jul-16 10:30N 35°27' E 139°40'0 0.0
2017-Jul-16 10:00N 35°27' E 139°40'0 0.0
2017-Jul-16 09:30N 35°27' E 139°40'2 3.7
2017-Jul-16 09:01N 35°26' E 139°42'713.3
2017-Jul-16 08:30N 35°19' E 139°43'611.7
2017-Jul-16 08:00N 35°14' E 139°47'4 8.2
2017-Jul-16 07:30N 35°10' E 139°47'2 4.7
2017-Jul-16 07:00N 35°12' E 139°46'714.0
2017-Jul-16 06:31N 35°19' E 139°43'714.1
2017-Jul-16 06:01N 35°26' E 139°42'2 4.2
2017-Jul-16 05:30N 35°27' E 139°40'0 0.0
2017-Jul-16 05:00N 35°27' E 139°40'0 0.0
2017-Jul-16 04:30N 35°27' E 139°40'0 0.0
2017-Jul-16 04:00N 35°27' E 139°40'0 0.0
2017-Jul-16 03:30N 35°27' E 139°40'0 0.0
2017-Jul-16 03:00N 35°27' E 139°40'0 0.0
2017-Jul-16 02:30N 35°27' E 139°40'0 0.0
2017-Jul-16 02:00N 35°27' E 139°40'0 0.0
2017-Jul-16 01:30N 35°27' E 139°40'4 8.8
2017-Jul-16 01:01N 35°25' E 139°45'4 7.2
2017-Jul-16 00:30N 35°22' E 139°45'4 7.6
2017-Jul-16 00:01N 35°18' E 139°45'4 8.1
2017-Jul-15 23:30N 35°14' E 139°47'4 8.0
2017-Jul-15 23:00N 35°10' E 139°47'5 9.6
2017-Jul-15 22:30N 35°15' E 139°46'714.0
2017-Jul-15 22:00N 35°21' E 139°41'612.3
2017-Jul-15 21:30N 35°27' E 139°41'1 1.8
2017-Jul-15 21:00N 35°27' E 139°40'0 0.0
2017-Jul-14 02:07N 35°27' E 139°40'0 4.5
2017-Jul-14 02:00N 35°27' E 139°40'4 8.7
2017-Jul-14 01:31N 35°30' E 139°44'1 1.7
2017-Jul-14 01:01N 35°31' E 139°44'1 1.6
2017-Jul-14 00:30N 35°30' E 139°44'5 9.7
2017-Jul-14 00:00N 35°27' E 139°40'  
Track history (hours):
 
Tides and Currents Weather Stations Pressure Air Temp Water Temp Dewpoint Dewpoint Depression Visibility Wind Speed Wind Dir Waves Ship Positions

Polaris

Last reported at 2017-Jul-23 04:30 UTC. Time now 2017-Jul-23 04:39 UTC.
Position N 35°27' E 139°40'.

Length 30 m; draft 2.6 m.

Type: Pilot. MMSI: 431000764.

Date/timePositionNaut miles runAvg speedWind from/ knotsBaromVisibWave heightAir tempDewpointWater temp
2017-Jul-23 04:30N 35°27' E 139°40'0 0.0
2017-Jul-23 04:00N 35°27' E 139°40'0 0.0
2017-Jul-23 03:30N 35°27' E 139°40'0 0.0
2017-Jul-23 03:00N 35°27' E 139°40'0 0.0
2017-Jul-23 02:30N 35°27' E 139°40'0 0.0
2017-Jul-23 02:00N 35°27' E 139°40'4 7.1
2017-Jul-23 01:31N 35°24' E 139°42'714.3
2017-Jul-23 01:01N 35°17' E 139°44'3 5.9
2017-Jul-23 00:30N 35°14' E 139°46'612.7
2017-Jul-23 00:00N 35°20' E 139°42'4 7.3
2017-Jul-22 23:30N 35°23' E 139°44'0 0.8
2017-Jul-22 23:00N 35°23' E 139°44'510.1
2017-Jul-22 22:30N 35°27' E 139°40'1 1.7
2017-Jul-22 22:00N 35°27' E 139°40'0 0.0
2017-Jul-22 21:30N 35°27' E 139°40'0 0.0
2017-Jul-22 21:01N 35°27' E 139°40'0 0.0
2017-Jul-22 20:30N 35°27' E 139°40'0 0.0
2017-Jul-22 20:00N 35°27' E 139°40'0 0.0
2017-Jul-22 19:30N 35°27' E 139°40'0 0.0
2017-Jul-22 19:00N 35°27' E 139°40'0 0.0
2017-Jul-22 18:30N 35°27' E 139°40'0 0.0
2017-Jul-22 18:00N 35°27' E 139°40'0 0.0
2017-Jul-22 17:30N 35°27' E 139°40'0 0.0
2017-Jul-22 17:00N 35°27' E 139°40'0 0.0
2017-Jul-22 16:30N 35°27' E 139°40'0 0.0
2017-Jul-22 16:00N 35°27' E 139°40'0 0.0
2017-Jul-22 15:30N 35°27' E 139°40'0 0.0
2017-Jul-22 15:00N 35°27' E 139°40'0 0.0
2017-Jul-22 14:01N 35°27' E 139°40'0 0.0
2017-Jul-22 13:30N 35°27' E 139°40'0 0.0
2017-Jul-22 13:00N 35°27' E 139°40'0 0.0
2017-Jul-22 12:30N 35°27' E 139°40'0 0.0
2017-Jul-22 12:00N 35°27' E 139°40'1 1.2
2017-Jul-22 11:30N 35°27' E 139°40'713.4
2017-Jul-22 11:00N 35°21' E 139°42'815.1
2017-Jul-22 10:30N 35°14' E 139°46'2 4.2
2017-Jul-22 10:00N 35°16' E 139°46'612.8
2017-Jul-22 09:30N 35°22' E 139°42'4 8.2
2017-Jul-22 09:00N 35°25' E 139°45'3 6.4
2017-Jul-22 08:30N 35°26' E 139°42'2 3.7
2017-Jul-22 08:00N 35°27' E 139°40'0 0.0
2017-Jul-22 07:30N 35°27' E 139°40'0 0.0
2017-Jul-22 07:00N 35°27' E 139°40'0 0.0
2017-Jul-22 06:30N 35°27' E 139°40'0 0.0
2017-Jul-22 06:00N 35°27' E 139°40'0 0.0
2017-Jul-22 05:30N 35°27' E 139°40'0 0.0
2017-Jul-22 05:00N 35°27' E 139°40'0 0.0
2017-Jul-22 04:30N 35°27' E 139°40'0 0.0
2017-Jul-22 04:00N 35°27' E 139°40'0 0.0
2017-Jul-22 03:30N 35°27' E 139°40'0 0.0
2017-Jul-22 03:00N 35°27' E 139°40'0 0.0
2017-Jul-22 02:30N 35°27' E 139°40'1 2.2
2017-Jul-22 02:01N 35°27' E 139°41'714.8
2017-Jul-22 01:31N 35°20' E 139°42'714.8
2017-Jul-22 01:00N 35°13' E 139°46'3 5.7
2017-Jul-22 00:30N 35°16' E 139°46'4 8.3
2017-Jul-22 00:00N 35°19' E 139°43'3 5.8
2017-Jul-21 23:30N 35°22' E 139°42'510.8
2017-Jul-21 23:00N 35°27' E 139°41'1 2.4
2017-Jul-21 22:30N 35°27' E 139°40'0 0.0
2017-Jul-21 22:00N 35°27' E 139°40'0 0.0
2017-Jul-21 21:30N 35°27' E 139°40'  
2017-Jul-18 23:49N 35°27' E 139°40'2 7.7
2017-Jul-18 23:30N 35°25' E 139°42'714.8
2017-Jul-18 23:00N 35°18' E 139°44'5 9.7
2017-Jul-18 22:30N 35°13' E 139°46'611.5
2017-Jul-18 22:00N 35°19' E 139°44'612.5
2017-Jul-18 21:31N 35°25' E 139°43'2 3.1
2017-Jul-18 21:01N 35°25' E 139°45'3 6.9
2017-Jul-18 20:30N 35°27' E 139°42'2 3.7
2017-Jul-18 20:00N 35°27' E 139°40'0 0.0
2017-Jul-18 19:30N 35°27' E 139°40'0 0.0
2017-Jul-16 18:23N 35°27' E 139°40'3 7.1
2017-Jul-16 18:00N 35°25' E 139°42'714.6
2017-Jul-16 17:31N 35°18' E 139°44'5 9.7
2017-Jul-16 16:59N 35°13' E 139°46'612.2
2017-Jul-16 16:30N 35°19' E 139°44'510.3
2017-Jul-16 16:00N 35°23' E 139°41'0 0.6
2017-Jul-16 15:30N 35°23' E 139°41'0 0.5
2017-Jul-16 15:00N 35°23' E 139°41'3 6.8
2017-Jul-16 14:31N 35°26' E 139°42'2 3.7
2017-Jul-16 14:00N 35°27' E 139°40'0 0.0
2017-Jul-16 13:30N 35°27' E 139°40'0 0.0
2017-Jul-16 13:00N 35°27' E 139°40'0 0.0
2017-Jul-16 12:30N 35°27' E 139°40'0 0.0
2017-Jul-16 12:00N 35°27' E 139°40'0 0.0
2017-Jul-16 11:30N 35°27' E 139°40'0 0.0
2017-Jul-16 11:00N 35°27' E 139°40'0 0.0
2017-Jul-16 10:30N 35°27' E 139°40'0 0.0
2017-Jul-16 10:00N 35°27' E 139°40'0 0.0
2017-Jul-16 09:30N 35°27' E 139°40'2 3.7
2017-Jul-16 09:01N 35°26' E 139°42'713.3
2017-Jul-16 08:30N 35°19' E 139°43'611.7
2017-Jul-16 08:00N 35°14' E 139°47'4 8.2
2017-Jul-16 07:30N 35°10' E 139°47'2 4.7
2017-Jul-16 07:00N 35°12' E 139°46'714.0
2017-Jul-16 06:31N 35°19' E 139°43'714.1
2017-Jul-16 06:01N 35°26' E 139°42'2 4.2
2017-Jul-16 05:30N 35°27' E 139°40'0 0.0
2017-Jul-16 05:00N 35°27' E 139°40'0 0.0
2017-Jul-16 04:30N 35°27' E 139°40'0 0.0
2017-Jul-16 04:00N 35°27' E 139°40'0 0.0
2017-Jul-16 03:30N 35°27' E 139°40'0 0.0
2017-Jul-16 03:00N 35°27' E 139°40'0 0.0
2017-Jul-16 02:30N 35°27' E 139°40'0 0.0
2017-Jul-16 02:00N 35°27' E 139°40'0 0.0
2017-Jul-16 01:30N 35°27' E 139°40'4 8.8
2017-Jul-16 01:01N 35°25' E 139°45'4 7.2
2017-Jul-16 00:30N 35°22' E 139°45'4 7.6
2017-Jul-16 00:01N 35°18' E 139°45'4 8.1
2017-Jul-15 23:30N 35°14' E 139°47'4 8.0
2017-Jul-15 23:00N 35°10' E 139°47'5 9.6
2017-Jul-15 22:30N 35°15' E 139°46'714.0
2017-Jul-15 22:00N 35°21' E 139°41'612.3
2017-Jul-15 21:30N 35°27' E 139°41'1 1.8
2017-Jul-15 21:00N 35°27' E 139°40'0 0.0
2017-Jul-14 02:07N 35°27' E 139°40'0 4.5
2017-Jul-14 02:00N 35°27' E 139°40'4 8.7
2017-Jul-14 01:31N 35°30' E 139°44'1 1.7
2017-Jul-14 01:01N 35°31' E 139°44'1 1.6
2017-Jul-14 00:30N 35°30' E 139°44'5 9.7
2017-Jul-14 00:00N 35°27' E 139°40'  

Dump ship's entire track history